Time;durP1;ratioP1;P1;durP2;ratioP2;P2;SDS_P1;SDS_P2;PMS_P1;PMS_P2;Temp;Humidity;BMP_temperature;BMP_pressure;BME280_temperature;BME280_humidity;BME280_pressure;Samples;Min_cycle;Max_cycle;Signal;HPM_P1;HPM_P2
2021/12/25 00:00:18;;;;;;;66.78;28.40;;;;;;;3.70;100.00;99259.97;4420647;32;20493;-66
2021/12/25 00:02:46;;;;;;;61.20;26.77;;;;;;;3.69;100.00;99268.66;4420614;32;20101;-67
2021/12/25 00:05:14;;;;;;;51.25;24.08;;;;;;;3.67;100.00;99266.91;4420398;32;20386;-67
2021/12/25 00:07:44;;;;;;;52.92;24.08;;;;;;;3.68;100.00;99269.53;4420444;32;20065;-67
2021/12/25 00:10:12;;;;;;;48.25;24.08;;;;;;;3.69;100.00;99271.25;4420677;32;20097;-67
2021/12/25 00:12:39;;;;;;;49.47;23.55;;;;;;;3.73;100.00;99272.97;4420704;32;20405;-67
2021/12/25 00:15:06;;;;;;;47.72;23.42;;;;;;;3.71;100.00;99271.25;4420550;32;20561;-66
2021/12/25 00:17:34;;;;;;;47.05;22.70;;;;;;;3.75;100.00;99281.69;4420510;32;20146;-67
2021/12/25 00:20:03;;;;;;;48.92;22.77;;;;;;;3.75;100.00;99286.88;4420513;32;20182;-67
2021/12/25 00:22:31;;;;;;;46.25;23.42;;;;;;;3.79;100.00;99290.34;4420372;32;20226;-67
2021/12/25 00:24:58;;;;;;;48.87;23.70;;;;;;;3.81;100.00;99292.06;4420584;32;20172;-66
2021/12/25 00:34:49;;;;;;;40.72;20.58;;;;;;;3.70;100.00;99282.53;4420732;32;20105;-67
2021/12/25 00:37:18;;;;;;;46.50;21.42;;;;;;;3.65;100.00;99284.31;4419485;32;20073;-67
2021/12/25 00:39:45;;;;;;;38.58;19.35;;;;;;;3.71;100.00;99284.28;4420512;32;20116;-67
2021/12/25 00:42:13;;;;;;;39.30;19.85;;;;;;;3.80;100.00;99292.94;4420280;32;20460;-67
2021/12/25 00:44:42;;;;;;;38.47;19.27;;;;;;;3.76;100.00;99296.44;4420280;32;20846;-67
2021/12/25 00:47:09;;;;;;;38.65;19.80;;;;;;;3.68;100.00;99294.72;4420094;32;20089;-67
2021/12/25 00:49:38;;;;;;;36.72;19.08;;;;;;;3.68;100.00;99286.91;4420388;32;20117;-67
2021/12/25 00:52:05;;;;;;;38.65;19.23;;;;;;;3.70;100.00;99285.16;4420220;32;20102;-67
2021/12/25 00:54:35;;;;;;;35.88;19.10;;;;;;;3.68;100.00;99285.16;4420355;32;20444;-67
2021/12/25 00:57:02;;;;;;;33.67;18.77;;;;;;;3.72;100.00;99289.50;4420190;32;20440;-67
2021/12/25 00:59:29;;;;;;;39.67;19.02;;;;;;;3.72;100.00;99292.09;4420111;32;20123;-66
2021/12/25 01:01:58;;;;;;;35.88;18.62;;;;;;;3.70;100.00;99278.19;4420067;32;20093;-67
2021/12/25 01:04:26;;;;;;;32.75;17.50;;;;;;;3.57;100.00;99287.78;4420147;32;20120;-67
2021/12/25 01:06:54;;;;;;;32.60;17.83;;;;;;;3.62;100.00;99299.94;4420199;32;20457;-67
2021/12/25 01:09:22;;;;;;;34.88;19.90;;;;;;;3.67;100.00;99304.25;4419973;32;20102;-67
2021/12/25 01:11:51;;;;;;;37.83;19.05;;;;;;;3.67;100.00;99308.59;4420127;32;20377;-67
2021/12/25 01:14:34;;;;;;;33.53;17.37;;;;;;;3.73;100.00;99301.66;4419968;32;20105;-67
2021/12/25 01:17:29;;;;;;;36.70;18.33;;;;;;;3.70;100.00;99299.03;4420241;32;20081;-67
2021/12/25 01:23:51;;;;;;;31.80;17.02;;;;;;;3.79;100.00;99308.59;4371259;32;20157;-67
2021/12/25 01:32:14;;;;;;;37.47;17.40;;;;;;;3.68;100.00;99321.63;4420034;32;20511;-67
2021/12/25 01:48:19;;;;;;;34.28;17.05;;;;;;;3.67;100.00;99324.22;4419787;32;20097;-67
2021/12/25 01:50:49;;;;;;;35.42;17.42;;;;;;;3.75;100.00;99325.97;4422064;32;20085;-67
2021/12/25 01:53:18;;;;;;;33.08;17.15;;;;;;;3.71;100.00;99326.84;4422353;32;20101;-67
2021/12/25 01:55:45;;;;;;;47.88;21.23;;;;;;;3.75;100.00;99327.72;4421896;32;20121;-67
2021/12/25 01:58:14;;;;;;;51.15;24.15;;;;;;;3.73;100.00;99325.09;4422041;32;20101;-67
2021/12/25 02:00:44;;;;;;;46.85;23.65;;;;;;;3.75;100.00;99328.56;4421937;32;20081;-67
2021/12/25 02:03:17;;;;;;;44.00;20.85;;;;;;;3.73;100.00;99330.31;4421880;32;20154;-66
2021/12/25 02:05:44;;;;;;;38.88;19.08;;;;;;;3.87;100.00;99332.03;4422001;32;20471;-67
2021/12/25 02:08:22;;;;;;;40.28;20.23;;;;;;;3.79;100.00;99327.69;4422046;32;20535;-67
2021/12/25 02:10:51;;;;;;;39.22;19.92;;;;;;;3.79;100.00;99319.88;4421937;32;20504;-67
2021/12/25 02:13:19;;;;;;;38.20;17.95;;;;;;;3.81;100.00;99318.13;4422009;32;20439;-66
2021/12/25 02:15:59;;;;;;;37.05;20.05;;;;;;;3.85;100.00;99313.78;4421955;32;20157;-67
2021/12/25 02:18:44;;;;;;;36.67;18.00;;;;;;;3.87;100.00;99306.84;4421957;32;20121;-67
2021/12/25 02:21:25;;;;;;;31.33;16.60;;;;;;;4.03;99.21;99318.97;4422049;32;20147;-67
2021/12/25 02:23:56;;;;;;;37.22;18.45;;;;;;;4.22;97.76;99313.69;4421941;32;20808;-67
2021/12/25 02:26:27;;;;;;;32.50;17.95;;;;;;;3.92;99.05;99312.03;4421767;32;20086;-67
2021/12/25 02:28:54;;;;;;;31.55;17.08;;;;;;;3.75;100.00;99318.16;4421976;32;20116;-67
2021/12/25 02:31:23;;;;;;;35.30;18.02;;;;;;;4.15;99.18;99317.19;4421737;32;20514;-67
2021/12/25 02:33:51;;;;;;;33.03;18.25;;;;;;;3.86;100.00;99306.84;4421441;32;20374;-67
2021/12/25 02:36:21;;;;;;;33.53;18.45;;;;;;;3.61;100.00;99306.03;4421619;32;20086;-67
2021/12/25 02:38:50;;;;;;;31.25;15.73;;;;;;;3.49;100.00;99307.75;4421545;32;20106;-67
2021/12/25 02:41:18;;;;;;;30.85;16.08;;;;;;;3.50;100.00;99306.03;4421694;32;20150;-67
2021/12/25 02:43:46;;;;;;;31.87;16.23;;;;;;;3.48;100.00;99302.56;4421681;32;20101;-67
2021/12/25 02:46:15;;;;;;;29.67;16.55;;;;;;;3.47;100.00;99306.91;4421556;32;20098;-67
2021/12/25 02:48:43;;;;;;;28.70;15.98;;;;;;;3.46;100.00;99304.28;4421502;32;20101;-67
2021/12/25 02:51:12;;;;;;;29.10;16.10;;;;;;;3.43;100.00;99312.09;4421690;32;20169;-67
2021/12/25 02:53:40;;;;;;;33.90;16.48;;;;;;;3.39;100.00;99320.75;4421416;32;20090;-67
2021/12/25 02:56:08;;;;;;;33.05;16.15;;;;;;;3.34;100.00;99312.97;4421505;32;20476;-67
2021/12/25 02:58:38;;;;;;;28.25;14.80;;;;;;;3.25;100.00;99310.34;4421780;31;20132;-67
2021/12/25 03:01:10;;;;;;;34.58;18.15;;;;;;;3.18;100.00;99309.50;4420504;32;20145;-67
2021/12/25 03:03:38;;;;;;;29.83;15.90;;;;;;;3.04;100.00;99309.50;4421423;32;20480;-67
2021/12/25 03:06:07;;;;;;;27.33;15.35;;;;;;;2.94;100.00;99312.06;4421283;32;20489;-67
2021/12/25 03:08:35;;;;;;;32.95;16.15;;;;;;;2.84;100.00;99309.44;4421227;32;20182;-67
2021/12/25 03:11:06;;;;;;;26.67;13.62;;;;;;;2.78;100.00;99304.22;4421287;32;20137;-66
2021/12/25 03:13:56;;;;;;;28.50;14.32;;;;;;;2.73;100.00;99300.75;4421296;32;20132;-67
2021/12/25 03:16:25;;;;;;;28.17;15.27;;;;;;;2.68;100.00;99296.41;4421583;32;20150;-67
2021/12/25 03:18:55;;;;;;;29.98;15.45;;;;;;;2.61;100.00;99301.59;4421300;32;20128;-67
2021/12/25 03:21:23;;;;;;;26.27;14.20;;;;;;;2.61;100.00;99305.91;4421052;32;20125;-66
2021/12/25 03:23:52;;;;;;;24.73;13.73;;;;;;;2.63;100.00;99309.41;4421218;32;20094;-67
2021/12/25 03:26:20;;;;;;;21.05;12.32;;;;;;;2.66;100.00;99311.16;4421203;32;20086;-66
2021/12/25 03:28:50;;;;;;;27.77;13.43;;;;;;;2.47;100.00;99310.19;4421125;32;20105;-67
2021/12/25 03:31:19;;;;;;;23.05;12.88;;;;;;;2.51;100.00;99312.84;4421291;32;20393;-67
2021/12/25 03:33:50;;;;;;;22.15;11.88;;;;;;;2.35;100.00;99311.91;4421265;32;20093;-67
2021/12/25 03:36:21;;;;;;;27.95;12.55;;;;;;;2.32;100.00;99311.03;4421043;32;20193;-67
2021/12/25 03:38:49;;;;;;;25.20;12.57;;;;;;;2.38;100.00;99304.12;4420966;32;20460;-67
2021/12/25 03:41:18;;;;;;;23.75;12.15;;;;;;;2.45;100.00;99310.22;4421001;32;20483;-66
2021/12/25 03:43:46;;;;;;;22.15;11.55;;;;;;;2.47;100.00;99312.81;4420868;32;20442;-66
2021/12/25 03:46:16;;;;;;;23.27;11.63;;;;;;;2.56;100.00;99320.66;4420737;32;20517;-67
2021/12/25 03:59:54;;;;;;;19.98;10.02;;;;;;;2.81;100.00;99355.41;4421176;32;20105;-67
2021/12/25 04:02:28;;;;;;;18.25;10.18;;;;;;;2.73;100.00;99359.72;4420991;32;20405;-66
2021/12/25 04:04:57;;;;;;;17.87;9.35;;;;;;;2.67;100.00;99367.50;4420965;32;20529;-67
2021/12/25 04:10:11;;;;;;;15.27;8.55;;;;;;;2.77;100.00;99370.13;4421048;32;20120;-67
2021/12/25 04:12:41;;;;;;;17.55;9.80;;;;;;;2.81;100.00;99374.47;4420391;32;20131;-67
2021/12/25 04:15:08;;;;;;;18.27;9.40;;;;;;;2.78;100.00;99369.25;4420898;32;20128;-66
2021/12/25 04:17:36;;;;;;;17.40;8.23;;;;;;;2.99;100.00;99378.00;4420576;32;20162;-67
2021/12/25 04:20:05;;;;;;;18.10;8.35;;;;;;;2.98;99.83;99378.88;4420745;32;20851;-67
2021/12/25 04:22:43;;;;;;;17.67;8.73;;;;;;;2.95;100.00;99368.44;4420836;32;20155;-66
2021/12/25 04:25:11;;;;;;;19.90;9.18;;;;;;;2.96;100.00;99365.84;4420994;32;20146;-67
2021/12/25 04:27:38;;;;;;;15.55;8.73;;;;;;;3.00;99.73;99369.31;4420454;32;20247;-67
2021/12/25 04:30:20;;;;;;;16.17;9.20;;;;;;;3.02;100.00;99365.84;4419075;32;20229;-67
2021/12/25 04:33:27;;;;;;;17.52;10.00;;;;;;;3.03;100.00;99349.38;4420371;32;20101;-67
2021/12/25 05:01:45;;;;;;;18.83;9.15;;;;;;;3.01;100.00;99332.91;4420571;32;20086;-67
2021/12/25 05:05:55;;;;;;;13.68;7.85;;;;;;;2.93;100.00;99341.53;4420349;32;20116;-67
2021/12/25 05:08:23;;;;;;;15.38;8.65;;;;;;;2.91;100.00;99341.56;4419983;32;20416;-67
2021/12/25 05:10:50;;;;;;;14.73;7.87;;;;;;;2.92;100.00;99342.41;4420213;32;20098;-66
2021/12/25 05:13:18;;;;;;;15.30;8.38;;;;;;;2.65;100.00;99338.87;4420081;32;20106;-67
2021/12/25 05:15:46;;;;;;;18.30;8.85;;;;;;;2.72;100.00;99347.56;4420164;32;20143;-67
2021/12/25 05:18:14;;;;;;;12.68;8.07;;;;;;;2.56;100.00;99344.91;4420145;32;20426;-66
2021/12/25 05:20:42;;;;;;;16.10;7.62;;;;;;;2.47;100.00;99337.06;4420104;32;20102;-67
2021/12/25 05:23:09;;;;;;;14.52;7.65;;;;;;;2.50;100.00;99338.81;4419830;32;20096;-67
2021/12/25 05:25:37;;;;;;;16.85;8.85;;;;;;;2.27;100.00;99341.34;4422264;32;20093;-67
2021/12/25 05:28:05;;;;;;;15.90;7.78;;;;;;;2.31;100.00;99338.75;4422169;32;20098;-67
2021/12/25 05:30:32;;;;;;;26.00;11.00;;;;;;;2.26;100.00;99343.06;4422215;32;20098;-67
2021/12/25 05:33:02;;;;;;;18.23;9.68;;;;;;;2.21;100.00;99355.16;4422295;32;20097;-67
2021/12/25 05:35:30;;;;;;;17.67;9.30;;;;;;;2.26;100.00;99347.38;4422322;32;20777;-67
2021/12/25 05:37:59;;;;;;;15.07;8.20;;;;;;;2.31;100.00;99353.47;4422262;32;20177;-67
2021/12/25 05:40:27;;;;;;;20.62;9.68;;;;;;;2.27;100.00;99346.53;4422436;32;20112;-66
2021/12/25 05:42:57;;;;;;;14.45;8.10;;;;;;;2.22;100.00;99354.28;4422373;32;20101;-67
2021/12/25 05:45:25;;;;;;;20.90;9.35;;;;;;;2.15;100.00;99349.91;4422016;32;20350;-66
2021/12/25 05:47:52;;;;;;;19.20;10.50;;;;;;;2.14;100.00;99353.37;4422156;32;20429;-67
2021/12/25 05:50:21;;;;;;;17.48;9.60;;;;;;;2.22;100.00;99359.47;4422177;32;20170;-66
2021/12/25 05:52:51;;;;;;;15.73;9.27;;;;;;;2.05;100.00;99350.72;4422251;32;20558;-67
2021/12/25 05:55:19;;;;;;;14.82;9.07;;;;;;;2.02;100.00;99342.94;4421850;32;20085;-66
2021/12/25 05:57:49;;;;;;;13.70;7.87;;;;;;;2.15;100.00;99342.12;4422108;32;20157;-66
2021/12/25 06:00:17;;;;;;;13.18;7.68;;;;;;;1.98;100.00;99349.84;4422267;32;20562;-67
2021/12/25 06:02:48;;;;;;;14.87;8.50;;;;;;;1.91;100.00;99348.94;4422148;32;20105;-66
2021/12/25 06:05:18;;;;;;;16.15;7.70;;;;;;;1.87;100.00;99357.56;4422117;32;20089;-67
2021/12/25 06:07:46;;;;;;;19.02;9.45;;;;;;;1.82;100.00;99363.59;4422018;32;20097;-67
2021/12/25 06:10:14;;;;;;;16.75;8.73;;;;;;;1.81;100.00;99357.53;4421780;32;20159;-67
2021/12/25 06:12:44;;;;;;;18.85;10.05;;;;;;;1.76;100.00;99363.53;4421875;32;20117;-67
2021/12/25 06:15:13;;;;;;;22.75;11.30;;;;;;;1.70;100.00;99371.28;4421904;32;20158;-67
2021/12/25 06:17:42;;;;;;;17.40;10.52;;;;;;;2.06;100.00;99373.28;4421985;32;20090;-66
2021/12/25 06:20:11;;;;;;;17.45;9.88;;;;;;;1.94;100.00;99379.22;4421829;32;20094;-66
2021/12/25 06:22:47;;;;;;;21.35;10.45;;;;;;;1.82;100.00;99389.56;4421872;32;20144;-66
2021/12/25 06:25:16;;;;;;;26.48;14.02;;;;;;;1.84;100.00;99388.72;4421674;32;20092;-66
2021/12/25 06:27:44;;;;;;;34.22;16.60;;;;;;;1.71;100.00;99392.06;4421729;32;20818;-66
2021/12/25 06:30:13;;;;;;;37.00;17.98;;;;;;;1.68;100.00;99398.09;4421770;32;20572;-66
2021/12/25 06:32:40;;;;;;;34.33;17.62;;;;;;;1.74;100.00;99410.28;4421778;32;20132;-66
2021/12/25 06:35:09;;;;;;;34.45;16.23;;;;;;;1.63;100.00;99409.31;4420892;32;20153;-66
2021/12/25 06:37:36;;;;;;;37.13;18.23;;;;;;;1.61;100.00;99411.91;4421581;32;20445;-66
2021/12/25 06:40:05;;;;;;;37.85;16.92;;;;;;;1.72;100.00;99409.38;4421797;32;20445;-66
2021/12/25 06:42:32;;;;;;;43.85;18.80;;;;;;;1.72;100.00;99422.37;4421490;32;20127;-66
2021/12/25 06:44:59;;;;;;;44.13;18.85;;;;;;;1.74;100.00;99417.19;4421382;32;20077;-66
2021/12/25 06:47:27;;;;;;;39.97;17.23;;;;;;;1.79;100.00;99429.34;4421367;32;20120;-66
2021/12/25 06:49:55;;;;;;;40.53;18.15;;;;;;;2.06;100.00;99426.09;4421122;32;20113;-67
2021/12/25 06:52:23;;;;;;;34.45;17.20;;;;;;;2.06;100.00;99427.84;4421446;32;20105;-66
2021/12/25 06:54:51;;;;;;;32.20;15.75;;;;;;;2.08;100.00;99433.88;4421385;32;20458;-66
2021/12/25 06:57:18;;;;;;;30.62;15.27;;;;;;;2.17;100.00;99444.37;4421273;32;20093;-66
2021/12/25 06:59:45;;;;;;;28.40;15.07;;;;;;;2.28;100.00;99439.22;4421283;32;20132;-66
2021/12/25 07:02:13;;;;;;;35.50;14.60;;;;;;;2.27;100.00;99443.56;4419543;32;20110;-66
2021/12/25 07:04:45;;;;;;;26.45;14.15;;;;;;;2.53;100.00;99437.66;4421424;32;20105;-66
2021/12/25 07:07:17;;;;;;;28.80;12.85;;;;;;;2.80;100.00;99444.72;4421360;32;20096;-66
2021/12/25 07:09:47;;;;;;;28.17;13.98;;;;;;;2.86;100.00;99437.81;4421300;32;20177;-66
2021/12/25 07:12:15;;;;;;;34.60;15.27;;;;;;;2.62;100.00;99435.09;4421340;32;20450;-66
2021/12/25 07:14:43;;;;;;;44.10;19.52;;;;;;;2.99;100.00;99445.66;4421330;32;20112;-66
2021/12/25 07:17:10;;;;;;;39.08;18.02;;;;;;;3.07;100.00;99447.44;4421274;32;20155;-66
2021/12/25 07:19:41;;;;;;;42.97;17.25;;;;;;;2.99;100.00;99449.12;4421392;32;20363;-67
2021/12/25 07:22:13;;;;;;;39.08;18.23;;;;;;;3.04;100.00;99447.41;4421312;32;20111;-66
2021/12/25 07:24:40;;;;;;;41.90;18.92;;;;;;;2.87;100.00;99449.94;4421337;32;20330;-66
2021/12/25 07:27:08;;;;;;;34.42;16.75;;;;;;;2.88;100.00;99445.63;4421246;32;20136;-66
2021/12/25 07:29:39;;;;;;;38.35;17.70;;;;;;;3.06;100.00;99437.87;4421070;32;20150;-66
2021/12/25 07:32:06;;;;;;;38.50;17.17;;;;;;;3.13;100.00;99443.97;4420891;32;20174;-66
2021/12/25 07:34:34;;;;;;;40.10;17.83;;;;;;;3.23;100.00;99444.87;4420942;32;20099;-66
2021/12/25 07:37:03;;;;;;;36.33;17.87;;;;;;;3.38;100.00;99446.63;4420906;32;20491;-66
2021/12/25 07:39:30;;;;;;;33.50;16.25;;;;;;;3.53;100.00;99450.16;4420911;32;20094;-66
2021/12/25 07:41:57;;;;;;;33.75;15.60;;;;;;;3.66;100.00;99448.41;4420861;32;20102;-67
2021/12/25 07:44:25;;;;;;;27.20;14.25;;;;;;;3.77;100.00;99454.47;4421172;32;20388;-66
2021/12/25 07:46:54;;;;;;;28.67;14.55;;;;;;;3.83;100.00;99451.87;4420597;32;20101;-66
2021/12/25 07:49:21;;;;;;;29.30;14.23;;;;;;;3.98;100.00;99453.63;4421001;32;20417;-66
2021/12/25 07:51:52;;;;;;;30.33;15.25;;;;;;;4.03;100.00;99454.50;4421016;32;20085;-66
2021/12/25 07:54:19;;;;;;;57.13;27.27;;;;;;;4.08;100.00;99463.19;4420846;32;20085;-66
2021/12/25 07:56:47;;;;;;;64.45;29.63;;;;;;;4.12;100.00;99461.44;4420757;32;20487;-66
2021/12/25 07:59:16;;;;;;;56.55;27.35;;;;;;;4.10;100.00;99468.41;4420636;32;20097;-67
2021/12/25 08:01:44;;;;;;;43.58;23.80;;;;;;;4.13;100.00;99460.56;4420388;32;20445;-66
2021/12/25 08:04:12;;;;;;;53.95;24.80;;;;;;;4.16;100.00;99459.69;4420431;32;20085;-67
2021/12/25 08:06:41;;;;;;;44.80;23.02;;;;;;;4.17;100.00;99466.63;4420679;32;20093;-67
2021/12/25 08:09:13;;;;;;;51.42;26.58;;;;;;;4.19;100.00;99465.78;4420659;32;20086;-67
2021/12/25 08:11:40;;;;;;;75.55;35.95;;;;;;;4.26;100.00;99467.50;4420652;32;20128;-67
2021/12/25 08:14:13;;;;;;;76.22;35.45;;;;;;;4.36;100.00;99455.34;4420681;32;20089;-66
2021/12/25 08:16:41;;;;;;;94.13;39.45;;;;;;;4.34;100.00;99459.66;4420602;32;20525;-67
2021/12/25 08:19:08;;;;;;;72.72;35.28;;;;;;;4.41;100.00;99460.53;4420569;32;20093;-66
2021/12/25 08:21:41;;;;;;;72.75;35.03;;;;;;;4.40;100.00;99461.41;4420612;32;20180;-67
2021/12/25 08:24:22;;;;;;;67.22;32.05;;;;;;;4.36;100.00;99459.69;4420542;32;20084;-66
2021/12/25 08:26:54;;;;;;;60.35;30.92;;;;;;;4.92;97.96;99454.31;4420694;32;20515;-67
2021/12/25 08:29:27;;;;;;;59.80;32.33;;;;;;;4.97;97.91;99449.06;4420715;32;20413;-66
2021/12/25 08:31:59;;;;;;;64.10;33.20;;;;;;;4.86;99.62;99445.63;4420622;32;20132;-67
2021/12/25 08:34:29;;;;;;;65.05;34.22;;;;;;;4.95;100.00;99443.84;4420395;32;20106;-67
2021/12/25 08:36:57;;;;;;;62.70;32.35;;;;;;;5.16;100.00;99455.94;4418844;32;20578;-67
2021/12/25 08:39:24;;;;;;;74.05;39.22;;;;;;;5.42;99.96;99449.72;4420298;32;20093;-67
2021/12/25 08:42:00;;;;;;;61.13;33.95;;;;;;;5.59;99.55;99426.94;4420400;32;20515;-66
2021/12/25 08:44:38;;;;;;;73.68;35.38;;;;;;;5.80;99.10;99427.69;4420500;32;20146;-67
2021/12/25 08:47:11;;;;;;;68.87;36.53;;;;;;;5.86;98.86;99430.22;4420390;32;20137;-67
2021/12/25 08:49:41;;;;;;;88.78;45.65;;;;;;;6.06;97.96;99415.25;4420088;32;20089;-67
2021/12/25 08:52:13;;;;;;;79.07;42.40;;;;;;;6.19;96.22;99409.03;4420296;32;20161;-67
2021/12/25 08:54:41;;;;;;;84.62;42.92;;;;;;;6.35;95.50;99414.13;4420456;32;20077;-67
2021/12/25 08:57:10;;;;;;;61.53;33.58;;;;;;;6.46;95.39;99422.72;4420264;32;20116;-67
2021/12/25 08:59:39;;;;;;;70.18;36.92;;;;;;;6.74;92.95;99415.41;4419113;32;20119;-67
2021/12/25 09:02:10;;;;;;;71.53;36.42;;;;;;;6.75;92.04;99414.56;4419976;32;20121;-67
2021/12/25 09:04:39;;;;;;;68.95;36.22;;;;;;;6.90;92.47;99413.50;4420150;32;20112;-67
2021/12/25 09:07:07;;;;;;;73.12;37.92;;;;;;;7.10;90.97;99419.34;4420060;32;20172;-67
2021/12/25 09:09:35;;;;;;;81.82;43.33;;;;;;;7.09;92.11;99421.97;4420167;32;20422;-67
2021/12/25 09:12:04;;;;;;;81.72;43.78;;;;;;;7.22;91.89;99446.25;4420170;32;20120;-67
2021/12/25 09:14:31;;;;;;;64.45;36.47;;;;;;;7.31;91.00;99446.97;4419930;32;20492;-67
2021/12/25 09:16:58;;;;;;;73.95;40.53;;;;;;;7.54;89.45;99440.56;4420017;32;20150;-67
2021/12/25 09:19:25;;;;;;;74.40;39.05;;;;;;;7.58;88.06;99437.87;4419905;32;20113;-67
2021/12/25 09:21:52;;;;;;;77.37;41.88;;;;;;;7.82;89.40;99425.28;4419886;32;20101;-67
2021/12/25 09:24:20;;;;;;;69.72;37.97;;;;;;;8.15;89.51;99415.97;4419883;32;20082;-67
2021/12/25 09:26:47;;;;;;;62.83;35.53;;;;;;;8.14;88.38;99414.25;4419938;32;20092;-67
2021/12/25 09:29:14;;;;;;;58.28;32.00;;;;;;;8.30;88.82;99409.56;4419720;32;20506;-67
2021/12/25 09:31:42;;;;;;;54.28;32.45;;;;;;;8.78;85.42;99414.81;4419770;32;20110;-67
2021/12/25 09:34:09;;;;;;;61.85;35.65;;;;;;;8.80;85.33;99413.91;4420027;32;20127;-67
2021/12/25 09:36:37;;;;;;;58.22;32.75;;;;;;;8.94;85.24;99412.72;4419811;32;20485;-67
2021/12/25 09:39:06;;;;;;;54.92;32.05;;;;;;;9.09;83.08;99407.19;4419585;32;20093;-67
2021/12/25 09:41:34;;;;;;;46.42;31.08;;;;;;;8.88;86.60;99407.63;4419662;32;20475;-67
2021/12/25 09:44:04;;;;;;;55.00;31.40;;;;;;;9.25;83.20;99397.19;4419649;32;20164;-67
2021/12/25 09:46:31;;;;;;;47.42;28.35;;;;;;;9.47;83.12;99390.56;4419672;32;20538;-67
2021/12/25 09:48:59;;;;;;;43.33;26.40;;;;;;;9.49;82.46;99399.25;4419527;32;20120;-67
2021/12/25 09:51:28;;;;;;;49.97;30.52;;;;;;;9.68;81.41;99404.06;4419439;32;20109;-67
2021/12/25 09:54:02;;;;;;;52.60;31.62;;;;;;;9.88;80.80;99399.19;4419494;32;20131;-67
2021/12/25 09:56:30;;;;;;;51.78;31.50;;;;;;;9.74;81.25;99403.94;4419632;32;20092;-67
2021/12/25 09:59:00;;;;;;;50.97;30.60;;;;;;;9.51;81.26;99394.84;4419525;32;20413;-67
2021/12/25 10:01:35;;;;;;;48.17;27.70;;;;;;;9.67;81.94;99399.72;4419488;32;20101;-67
2021/12/25 10:04:07;;;;;;;53.97;30.85;;;;;;;9.44;81.43;99395.88;4419528;32;20081;-67
2021/12/25 10:06:44;;;;;;;48.58;27.48;;;;;;;9.73;82.23;99389.06;4419423;32;20498;-67
2021/12/25 10:09:17;;;;;;;46.33;26.58;;;;;;;10.19;78.51;99388.75;4419315;32;20160;-67
2021/12/25 10:12:05;;;;;;;46.10;25.17;;;;;;;9.92;80.21;99384.19;4421859;32;20093;-67
2021/12/25 10:14:36;;;;;;;44.30;23.75;;;;;;;9.66;81.50;99387.47;4421898;32;20077;-67
2021/12/25 10:17:14;;;;;;;43.22;25.08;;;;;;;10.00;81.19;99392.75;4421792;32;20153;-67
2021/12/25 10:19:41;;;;;;;35.15;21.58;;;;;;;10.24;81.46;99392.13;4421806;32;20120;-67
2021/12/25 10:22:11;;;;;;;28.67;17.92;;;;;;;10.85;79.04;99400.16;4421645;32;20414;-67
2021/12/25 10:24:50;;;;;;;31.17;19.17;;;;;;;11.47;76.66;99396.53;4421715;32;20111;-67
2021/12/25 10:27:20;;;;;;;26.17;14.00;;;;;;;11.47;74.40;99399.16;4421697;32;20501;-67
2021/12/25 10:29:48;;;;;;;22.05;11.65;;;;;;;12.11;70.73;99391.81;4421500;32;20123;-67
2021/12/25 10:32:22;;;;;;;14.93;10.00;;;;;;;11.69;71.58;99392.28;4421580;32;20792;-67
2021/12/25 10:34:52;;;;;;;14.90;8.95;;;;;;;12.29;69.71;99385.03;4421708;32;20081;-67
2021/12/25 10:37:20;;;;;;;15.13;9.30;;;;;;;12.13;69.81;99387.34;4421557;32;20631;-67
2021/12/25 10:39:49;;;;;;;15.32;9.60;;;;;;;12.91;67.58;99383.69;4421566;32;20569;-67
2021/12/25 10:42:20;;;;;;;12.02;9.23;;;;;;;13.98;63.05;99379.47;4421562;32;20109;-67
2021/12/25 10:44:55;;;;;;;14.75;10.35;;;;;;;13.87;62.80;99371.97;4421488;32;20335;-67
2021/12/25 10:47:25;;;;;;;16.00;10.88;;;;;;;14.39;61.45;99368.91;4421394;32;20546;-67
2021/12/25 10:49:55;;;;;;;21.05;12.65;;;;;;;13.74;62.90;99368.09;4421490;32;20101;-67
2021/12/25 10:52:28;;;;;;;18.00;12.70;;;;;;;13.94;62.82;99366.44;4421525;32;20497;-67
2021/12/25 10:55:06;;;;;;;19.60;12.83;;;;;;;14.55;60.70;99366.47;4421570;32;20081;-67
2021/12/25 10:57:37;;;;;;;20.05;12.68;;;;;;;14.36;60.61;99366.38;4421586;32;20610;-67
2021/12/25 11:00:06;;;;;;;18.12;12.90;;;;;;;14.22;61.28;99369.63;4421367;32;20116;-68
2021/12/25 11:02:36;;;;;;;19.40;13.27;;;;;;;14.97;60.43;99358.34;4421310;32;20127;-68
2021/12/25 11:05:19;;;;;;;16.23;11.63;;;;;;;14.91;58.71;99360.41;4421499;32;20132;-68
2021/12/25 11:08:01;;;;;;;16.20;11.82;;;;;;;15.10;58.63;99358.66;4421289;32;20101;-68
2021/12/25 11:10:32;;;;;;;15.02;10.45;;;;;;;15.76;56.93;99343.09;4421297;32;20420;-68
2021/12/25 11:12:59;;;;;;;13.75;9.70;;;;;;;15.87;56.70;99341.69;4420915;32;20887;-67
2021/12/25 11:15:33;;;;;;;16.92;10.90;;;;;;;15.88;55.58;99336.31;4420932;32;20479;-68
2021/12/25 11:18:06;;;;;;;16.87;11.27;;;;;;;15.46;57.49;99332.13;4421304;32;20486;-67
2021/12/25 11:20:39;;;;;;;17.83;11.70;;;;;;;16.28;55.94;99325.41;4421022;32;20096;-68
2021/12/25 11:23:10;;;;;;;17.15;11.43;;;;;;;16.68;54.18;99322.37;4420631;32;20113;-67
2021/12/25 11:25:39;;;;;;;14.57;10.43;;;;;;;16.31;55.55;99314.63;4421125;32;20105;-68
2021/12/25 11:28:09;;;;;;;17.27;11.10;;;;;;;17.35;51.63;99315.16;4421102;32;20181;-68
2021/12/25 11:30:43;;;;;;;14.68;9.80;;;;;;;17.76;51.00;99306.59;4421135;32;20111;-68
2021/12/25 11:33:11;;;;;;;11.12;8.13;;;;;;;18.31;49.68;99300.66;4420979;32;20092;-68
2021/12/25 11:35:39;;;;;;;12.90;8.75;;;;;;;17.89;49.24;99304.09;4421314;32;20127;-68
2021/12/25 11:38:09;;;;;;;11.93;7.50;;;;;;;18.02;48.19;99301.53;4420944;32;20180;-68
2021/12/25 11:40:44;;;;;;;11.15;7.97;;;;;;;17.94;50.84;99299.31;4421124;32;20464;-68
2021/12/25 11:43:11;;;;;;;9.77;6.90;;;;;;;17.75;49.58;99296.03;4421160;32;20120;-68
2021/12/25 11:45:41;;;;;;;9.93;7.03;;;;;;;17.24;50.63;99292.72;4420995;32;20153;-68
2021/12/25 11:48:19;;;;;;;9.35;6.70;;;;;;;17.50;51.13;99284.13;4420999;32;20098;-68
2021/12/25 11:50:52;;;;;;;6.55;5.75;;;;;;;17.81;48.57;99279.69;4421101;32;20111;-68
2021/12/25 11:53:52;;;;;;;7.78;5.45;;;;;;;18.28;49.49;99281.31;4421128;32;20164;-68
2021/12/25 11:58:51;;;;;;;7.93;3.97;;;;;;;19.36;47.52;99270.88;4420833;32;20475;-68
2021/12/25 12:01:30;;;;;;;2.50;2.30;;;;;;;20.18;43.38;99277.00;4420825;32;20514;-68
2021/12/25 12:04:12;;;;;;;7.03;5.28;;;;;;;20.22;42.84;99278.50;4420877;32;20101;-68
2021/12/25 12:06:48;;;;;;;6.05;5.00;;;;;;;20.40;42.35;99279.91;4420824;32;20149;-68
2021/12/25 12:09:48;;;;;;;10.18;7.05;;;;;;;20.02;43.14;99278.06;4420882;32;20078;-68
2021/12/25 12:12:23;;;;;;;11.45;8.43;;;;;;;19.71;46.57;99275.75;4420740;32;20520;-68
2021/12/25 12:15:18;;;;;;;7.40;6.30;;;;;;;19.30;44.78;99280.19;4420928;32;20093;-68
2021/12/25 12:18:32;;;;;;;13.73;10.70;;;;;;;18.06;47.47;99277.28;4420753;32;20086;-68
2021/12/25 12:21:09;;;;;;;11.48;10.02;;;;;;;17.36;50.03;99274.28;4420645;32;20086;-68
2021/12/25 12:26:44;;;;;;;8.70;5.90;;;;;;;16.73;53.43;99276.91;4420696;32;20119;-68
2021/12/25 12:29:13;;;;;;;15.27;10.65;;;;;;;16.27;54.55;99281.19;4420440;32;20119;-68
2021/12/25 12:31:43;;;;;;;11.32;8.50;;;;;;;15.42;54.87;99281.94;4420516;32;20153;-68
2021/12/25 12:34:29;;;;;;;23.20;18.92;;;;;;;14.56;57.82;99288.69;4420343;32;20164;-67
2021/12/25 12:37:14;;;;;;;21.10;16.42;;;;;;;14.22;59.67;99282.19;4420627;32;20155;-67
2021/12/25 12:39:44;;;;;;;10.75;8.50;;;;;;;14.06;61.50;99274.06;4420425;32;20496;-67
2021/12/25 12:42:14;;;;;;;11.73;9.65;;;;;;;14.00;61.57;99273.47;4420660;32;20073;-67
2021/12/25 12:45:19;;;;;;;6.32;5.57;;;;;;;14.21;61.94;99277.84;4420561;32;20115;-67
2021/12/25 12:48:08;;;;;;;7.15;6.45;;;;;;;14.26;60.83;99273.19;4420659;32;20097;-68
2021/12/25 12:50:38;;;;;;;5.65;4.65;;;;;;;14.44;60.77;99278.56;4420272;32;20107;-67
2021/12/25 12:53:07;;;;;;;6.07;4.82;;;;;;;14.61;60.37;99281.34;4420308;32;20097;-67
2021/12/25 12:55:43;;;;;;;7.18;4.32;;;;;;;14.80;60.25;99284.00;4420314;32;20096;-66